sensor_id;sensor_type;location;lat;lon;timestamp;pressure;altitude;pressure_sealevel;temperature;humidity
75192;BME280;63771;52.580;9.734;2023-11-19T00:01:22;100552.06;;;6.15;100.00
75192;BME280;63771;52.580;9.734;2023-11-19T00:03:48;100542.84;;;6.16;100.00
75192;BME280;63771;52.580;9.734;2023-11-19T00:06:13;100522.28;;;6.13;100.00
75192;BME280;63771;52.580;9.734;2023-11-19T00:08:38;100528.56;;;6.16;100.00
75192;BME280;63771;52.580;9.734;2023-11-19T00:11:04;100508.56;;;6.19;100.00
75192;BME280;63771;52.580;9.734;2023-11-19T00:13:29;100507.09;;;6.21;100.00
75192;BME280;63771;52.580;9.734;2023-11-19T00:15:55;100508.88;;;6.22;100.00
75192;BME280;63771;52.580;9.734;2023-11-19T00:18:21;100504.69;;;6.23;100.00
75192;BME280;63771;52.580;9.734;2023-11-19T00:20:47;100517.81;;;6.27;100.00
75192;BME280;63771;52.580;9.734;2023-11-19T00:23:12;100496.03;;;6.30;100.00
75192;BME280;63771;52.580;9.734;2023-11-19T00:25:37;100489.06;;;6.27;100.00
75192;BME280;63771;52.580;9.734;2023-11-19T00:28:04;100485.00;;;6.29;100.00
75192;BME280;63771;52.580;9.734;2023-11-19T00:30:29;100485.16;;;6.31;100.00
75192;BME280;63771;52.580;9.734;2023-11-19T00:32:56;100471.59;;;6.30;100.00
75192;BME280;63771;52.580;9.734;2023-11-19T00:35:21;100465.94;;;6.33;100.00
75192;BME280;63771;52.580;9.734;2023-11-19T00:37:47;100449.84;;;6.32;100.00
75192;BME280;63771;52.580;9.734;2023-11-19T00:40:13;100447.56;;;6.35;100.00
75192;BME280;63771;52.580;9.734;2023-11-19T00:42:41;100441.75;;;6.36;100.00
75192;BME280;63771;52.580;9.734;2023-11-19T00:45:06;100436.84;;;6.38;100.00
75192;BME280;63771;52.580;9.734;2023-11-19T00:47:34;100430.28;;;6.40;100.00
75192;BME280;63771;52.580;9.734;2023-11-19T00:50:00;100429.53;;;6.41;100.00
75192;BME280;63771;52.580;9.734;2023-11-19T00:52:26;100429.53;;;6.41;100.00
75192;BME280;63771;52.580;9.734;2023-11-19T00:54:51;100422.09;;;6.42;100.00
75192;BME280;63771;52.580;9.734;2023-11-19T00:57:16;100418.78;;;6.43;100.00
75192;BME280;63771;52.580;9.734;2023-11-19T00:59:43;100429.19;;;6.46;100.00
75192;BME280;63771;52.580;9.734;2023-11-19T01:02:08;100420.72;;;6.46;100.00
75192;BME280;63771;52.580;9.734;2023-11-19T01:04:34;100410.75;;;6.47;100.00
75192;BME280;63771;52.580;9.734;2023-11-19T01:07:02;100402.38;;;6.48;100.00
75192;BME280;63771;52.580;9.734;2023-11-19T01:09:29;100384.00;;;6.51;100.00
75192;BME280;63771;52.580;9.734;2023-11-19T01:11:54;100378.19;;;6.52;100.00
75192;BME280;63771;52.580;9.734;2023-11-19T01:14:20;100374.31;;;6.56;100.00
75192;BME280;63771;52.580;9.734;2023-11-19T01:16:45;100378.78;;;6.58;100.00
75192;BME280;63771;52.580;9.734;2023-11-19T01:19:11;100377.84;;;6.58;100.00
75192;BME280;63771;52.580;9.734;2023-11-19T01:21:36;100365.34;;;6.59;100.00
75192;BME280;63771;52.580;9.734;2023-11-19T01:24:01;100372.19;;;6.60;100.00
75192;BME280;63771;52.580;9.734;2023-11-19T01:26:29;100369.94;;;6.63;100.00
75192;BME280;63771;52.580;9.734;2023-11-19T01:28:54;100365.28;;;6.68;100.00
75192;BME280;63771;52.580;9.734;2023-11-19T01:31:19;100355.56;;;6.72;100.00
75192;BME280;63771;52.580;9.734;2023-11-19T01:33:45;100349.75;;;6.73;100.00
75192;BME280;63771;52.580;9.734;2023-11-19T01:36:14;100344.94;;;6.76;100.00
75192;BME280;63771;52.580;9.734;2023-11-19T01:38:39;100336.88;;;6.80;100.00
75192;BME280;63771;52.580;9.734;2023-11-19T01:41:05;100340.44;;;6.83;100.00
75192;BME280;63771;52.580;9.734;2023-11-19T01:43:31;100331.34;;;6.85;100.00
75192;BME280;63771;52.580;9.734;2023-11-19T01:45:58;100332.34;;;6.87;100.00
75192;BME280;63771;52.580;9.734;2023-11-19T01:48:23;100336.94;;;6.91;100.00
75192;BME280;63771;52.580;9.734;2023-11-19T01:50:49;100325.28;;;6.93;100.00
75192;BME280;63771;52.580;9.734;2023-11-19T01:53:15;100330.53;;;6.94;100.00
75192;BME280;63771;52.580;9.734;2023-11-19T01:55:41;100328.38;;;6.99;100.00
75192;BME280;63771;52.580;9.734;2023-11-19T01:58:07;100304.06;;;7.01;100.00
75192;BME280;63771;52.580;9.734;2023-11-19T02:00:32;100300.13;;;7.04;100.00
75192;BME280;63771;52.580;9.734;2023-11-19T02:02:59;100302.94;;;7.07;100.00
75192;BME280;63771;52.580;9.734;2023-11-19T02:05:25;100293.69;;;7.08;100.00
75192;BME280;63771;52.580;9.734;2023-11-19T02:07:51;100293.19;;;7.12;100.00
75192;BME280;63771;52.580;9.734;2023-11-19T02:10:17;100291.97;;;7.17;100.00
75192;BME280;63771;52.580;9.734;2023-11-19T02:12:44;100292.97;;;7.19;100.00
75192;BME280;63771;52.580;9.734;2023-11-19T02:15:11;100284.00;;;7.23;100.00
75192;BME280;63771;52.580;9.734;2023-11-19T02:17:36;100292.63;;;7.25;100.00
75192;BME280;63771;52.580;9.734;2023-11-19T02:20:06;100287.81;;;7.28;100.00
75192;BME280;63771;52.580;9.734;2023-11-19T02:22:34;100279.72;;;7.32;100.00
75192;BME280;63771;52.580;9.734;2023-11-19T02:25:11;100278.97;;;7.33;100.00
75192;BME280;63771;52.580;9.734;2023-11-19T02:27:54;100257.31;;;7.37;100.00
75192;BME280;63771;52.580;9.734;2023-11-19T02:30:21;100262.00;;;7.42;100.00
75192;BME280;63771;52.580;9.734;2023-11-19T02:32:54;100255.69;;;7.47;100.00
75192;BME280;63771;52.580;9.734;2023-11-19T02:35:22;100245.66;;;7.49;100.00
75192;BME280;63771;52.580;9.734;2023-11-19T02:37:48;100251.13;;;7.53;100.00
75192;BME280;63771;52.580;9.734;2023-11-19T02:40:13;100247.22;;;7.57;100.00
75192;BME280;63771;52.580;9.734;2023-11-19T02:42:39;100237.31;;;7.60;100.00
75192;BME280;63771;52.580;9.734;2023-11-19T02:45:05;100228.69;;;7.58;100.00
75192;BME280;63771;52.580;9.734;2023-11-19T02:47:32;100219.94;;;7.65;100.00
75192;BME280;63771;52.580;9.734;2023-11-19T02:49:57;100217.50;;;7.66;100.00
75192;BME280;63771;52.580;9.734;2023-11-19T02:52:23;100202.56;;;7.69;100.00
75192;BME280;63771;52.580;9.734;2023-11-19T02:54:48;100210.41;;;7.72;100.00
75192;BME280;63771;52.580;9.734;2023-11-19T02:57:13;100213.22;;;7.75;100.00
75192;BME280;63771;52.580;9.734;2023-11-19T02:59:39;100208.41;;;7.78;100.00
75192;BME280;63771;52.580;9.734;2023-11-19T03:02:07;100198.50;;;7.81;100.00
75192;BME280;63771;52.580;9.734;2023-11-19T03:04:36;100190.09;;;7.82;100.00
75192;BME280;63771;52.580;9.734;2023-11-19T03:07:01;100182.00;;;7.87;100.00
75192;BME280;63771;52.580;9.734;2023-11-19T03:09:27;100178.06;;;7.90;100.00
75192;BME280;63771;52.580;9.734;2023-11-19T03:11:54;100174.88;;;7.93;100.00
75192;BME280;63771;52.580;9.734;2023-11-19T03:14:19;100173.50;;;7.96;100.00
75192;BME280;63771;52.580;9.734;2023-11-19T03:16:45;100176.03;;;7.96;100.00
75192;BME280;63771;52.580;9.734;2023-11-19T03:19:11;100178.97;;;8.01;100.00
75192;BME280;63771;52.580;9.734;2023-11-19T03:21:37;100178.47;;;8.05;100.00
75192;BME280;63771;52.580;9.734;2023-11-19T03:24:02;100176.16;;;8.08;100.00
75192;BME280;63771;52.580;9.734;2023-11-19T03:26:28;100167.03;;;8.10;100.00
75192;BME280;63771;52.580;9.734;2023-11-19T03:28:53;100166.50;;;8.14;100.00
75192;BME280;63771;52.580;9.734;2023-11-19T03:31:19;100164.88;;;8.15;100.00
75192;BME280;63771;52.580;9.734;2023-11-19T03:33:45;100157.59;;;8.19;100.00
75192;BME280;63771;52.580;9.734;2023-11-19T03:36:10;100149.97;;;8.19;100.00
75192;BME280;63771;52.580;9.734;2023-11-19T03:38:36;100173.47;;;8.27;100.00
75192;BME280;63771;52.580;9.734;2023-11-19T03:41:10;100166.25;;;8.31;100.00
75192;BME280;63771;52.580;9.734;2023-11-19T03:43:35;100158.25;;;8.37;100.00
75192;BME280;63771;52.580;9.734;2023-11-19T03:46:00;100160.91;;;8.39;100.00
75192;BME280;63771;52.580;9.734;2023-11-19T03:48:26;100162.16;;;8.44;100.00
75192;BME280;63771;52.580;9.734;2023-11-19T03:50:51;100159.75;;;8.45;100.00
75192;BME280;63771;52.580;9.734;2023-11-19T03:53:16;100154.91;;;8.48;100.00
75192;BME280;63771;52.580;9.734;2023-11-19T03:55:43;100150.97;;;8.52;100.00
75192;BME280;63771;52.580;9.734;2023-11-19T03:58:09;100152.88;;;8.54;100.00
75192;BME280;63771;52.580;9.734;2023-11-19T04:00:34;100145.34;;;8.56;100.00
75192;BME280;63771;52.580;9.734;2023-11-19T04:03:00;100152.47;;;8.60;100.00
75192;BME280;63771;52.580;9.734;2023-11-19T04:05:25;100153.50;;;8.62;100.00
75192;BME280;63771;52.580;9.734;2023-11-19T04:07:51;100151.84;;;8.62;100.00
75192;BME280;63771;52.580;9.734;2023-11-19T04:10:16;100152.94;;;8.66;100.00
75192;BME280;63771;52.580;9.734;2023-11-19T04:12:42;100144.31;;;8.64;100.00
75192;BME280;63771;52.580;9.734;2023-11-19T04:15:08;100147.47;;;8.72;100.00
75192;BME280;63771;52.580;9.734;2023-11-19T04:17:34;100143.28;;;8.72;100.00
75192;BME280;63771;52.580;9.734;2023-11-19T04:19:59;100151.91;;;8.74;100.00
75192;BME280;63771;52.580;9.734;2023-11-19T04:22:24;100155.47;;;8.76;100.00
75192;BME280;63771;52.580;9.734;2023-11-19T04:24:49;100153.06;;;8.78;100.00
75192;BME280;63771;52.580;9.734;2023-11-19T04:27:15;100158.16;;;8.78;100.00
75192;BME280;63771;52.580;9.734;2023-11-19T04:29:40;100160.03;;;8.80;100.00
75192;BME280;63771;52.580;9.734;2023-11-19T04:32:06;100161.19;;;8.84;100.00
75192;BME280;63771;52.580;9.734;2023-11-19T04:34:31;100158.75;;;8.85;100.00
75192;BME280;63771;52.580;9.734;2023-11-19T04:36:56;100157.09;;;8.86;100.00
75192;BME280;63771;52.580;9.734;2023-11-19T04:39:22;100164.19;;;8.90;100.00
75192;BME280;63771;52.580;9.734;2023-11-19T04:41:48;100153.34;;;8.93;100.00
75192;BME280;63771;52.580;9.734;2023-11-19T04:44:14;100153.34;;;8.93;100.00
75192;BME280;63771;52.580;9.734;2023-11-19T04:46:41;100150.28;;;8.97;100.00
75192;BME280;63771;52.580;9.734;2023-11-19T04:49:08;100139.34;;;8.98;100.00
75192;BME280;63771;52.580;9.734;2023-11-19T04:51:41;100142.16;;;9.01;100.00
75192;BME280;63771;52.580;9.734;2023-11-19T04:54:07;100145.16;;;9.07;100.00
75192;BME280;63771;52.580;9.734;2023-11-19T04:56:34;100144.63;;;9.11;100.00
75192;BME280;63771;52.580;9.734;2023-11-19T04:58:59;100142.34;;;9.14;100.00
75192;BME280;63771;52.580;9.734;2023-11-19T05:01:24;100142.16;;;9.23;100.00
75192;BME280;63771;52.580;9.734;2023-11-19T05:03:50;100137.16;;;9.34;100.00
75192;BME280;63771;52.580;9.734;2023-11-19T05:06:16;100128.41;;;9.43;100.00
75192;BME280;63771;52.580;9.734;2023-11-19T05:08:42;100119.13;;;9.43;100.00
75192;BME280;63771;52.580;9.734;2023-11-19T05:11:07;100112.50;;;9.45;100.00
75192;BME280;63771;52.580;9.734;2023-11-19T05:13:32;100110.28;;;9.50;100.00
75192;BME280;63771;52.580;9.734;2023-11-19T05:15:58;100103.00;;;9.54;100.00
75192;BME280;63771;52.580;9.734;2023-11-19T05:18:24;100093.16;;;9.59;100.00
75192;BME280;63771;52.580;9.734;2023-11-19T05:20:50;100085.75;;;9.62;100.00
75192;BME280;63771;52.580;9.734;2023-11-19T05:23:15;100084.44;;;9.67;100.00
75192;BME280;63771;52.580;9.734;2023-11-19T05:25:40;100089.88;;;9.72;100.00
75192;BME280;63771;52.580;9.734;2023-11-19T05:28:05;100090.09;;;9.75;100.00
75192;BME280;63771;52.580;9.734;2023-11-19T05:30:31;100088.44;;;9.75;100.00
75192;BME280;63771;52.580;9.734;2023-11-19T05:32:56;100095.53;;;9.79;100.00
75192;BME280;63771;52.580;9.734;2023-11-19T05:35:22;100094.66;;;9.79;100.00
75192;BME280;63771;52.580;9.734;2023-11-19T05:37:47;100104.41;;;9.84;100.00
75192;BME280;63771;52.580;9.734;2023-11-19T05:40:12;100103.78;;;9.87;100.00
75192;BME280;63771;52.580;9.734;2023-11-19T05:42:40;100096.22;;;9.88;100.00
75192;BME280;63771;52.580;9.734;2023-11-19T05:45:06;100095.69;;;9.92;100.00
75192;BME280;63771;52.580;9.734;2023-11-19T05:47:33;100083.84;;;9.93;100.00
75192;BME280;63771;52.580;9.734;2023-11-19T05:49:58;100090.69;;;9.94;100.00
75192;BME280;63771;52.580;9.734;2023-11-19T05:52:23;100092.47;;;9.95;100.00
75192;BME280;63771;52.580;9.734;2023-11-19T05:54:49;100088.25;;;9.96;100.00
75192;BME280;63771;52.580;9.734;2023-11-19T05:57:17;100088.38;;;9.97;100.00
75192;BME280;63771;52.580;9.734;2023-11-19T05:59:47;100089.28;;;9.98;100.00
75192;BME280;63771;52.580;9.734;2023-11-19T06:02:13;100096.03;;;9.97;100.00
75192;BME280;63771;52.580;9.734;2023-11-19T06:04:38;100097.81;;;9.98;100.00
75192;BME280;63771;52.580;9.734;2023-11-19T06:07:04;100097.13;;;10.01;100.00
75192;BME280;63771;52.580;9.734;2023-11-19T06:09:30;100093.94;;;10.03;100.00
75192;BME280;63771;52.580;9.734;2023-11-19T06:11:55;100092.28;;;10.04;100.00
75192;BME280;63771;52.580;9.734;2023-11-19T06:14:22;100090.50;;;10.03;100.00
75192;BME280;63771;52.580;9.734;2023-11-19T06:16:49;100102.56;;;10.05;100.00
75192;BME280;63771;52.580;9.734;2023-11-19T06:19:16;100108.78;;;10.09;100.00
75192;BME280;63771;52.580;9.734;2023-11-19T06:21:42;100108.88;;;10.10;100.00
75192;BME280;63771;52.580;9.734;2023-11-19T06:24:07;100115.88;;;10.13;100.00
75192;BME280;63771;52.580;9.734;2023-11-19T06:26:34;100115.31;;;10.17;100.00
75192;BME280;63771;52.580;9.734;2023-11-19T06:28:59;100123.09;;;10.18;100.00
75192;BME280;63771;52.580;9.734;2023-11-19T06:31:24;100114.00;;;10.22;100.00
75192;BME280;63771;52.580;9.734;2023-11-19T06:33:50;100111.59;;;10.24;100.00
75192;BME280;63771;52.580;9.734;2023-11-19T06:36:15;100114.25;;;10.25;100.00
75192;BME280;63771;52.580;9.734;2023-11-19T06:38:43;100116.25;;;10.29;100.00
75192;BME280;63771;52.580;9.734;2023-11-19T06:41:09;100112.38;;;10.34;100.00
75192;BME280;63771;52.580;9.734;2023-11-19T06:43:36;100116.72;;;10.35;100.00
75192;BME280;63771;52.580;9.734;2023-11-19T06:46:02;100121.81;;;10.35;100.00
75192;BME280;63771;52.580;9.734;2023-11-19T06:48:30;100127.09;;;10.38;100.00
75192;BME280;63771;52.580;9.734;2023-11-19T06:50:57;100126.91;;;10.35;100.00
75192;BME280;63771;52.580;9.734;2023-11-19T06:53:22;100134.56;;;10.35;100.00
75192;BME280;63771;52.580;9.734;2023-11-19T06:55:48;100134.44;;;10.34;100.00
75192;BME280;63771;52.580;9.734;2023-11-19T06:58:13;100133.53;;;10.33;100.00
75192;BME280;63771;52.580;9.734;2023-11-19T07:00:38;100143.00;;;10.34;100.00
75192;BME280;63771;52.580;9.734;2023-11-19T07:03:04;100136.31;;;10.36;100.00
75192;BME280;63771;52.580;9.734;2023-11-19T07:05:31;100139.41;;;10.32;100.00
75192;BME280;63771;52.580;9.734;2023-11-19T07:07:56;100140.63;;;10.37;100.00
75192;BME280;63771;52.580;9.734;2023-11-19T07:10:21;100138.97;;;10.38;100.00
75192;BME280;63771;52.580;9.734;2023-11-19T07:12:47;100141.53;;;10.38;100.00
75192;BME280;63771;52.580;9.734;2023-11-19T07:15:15;100140.88;;;10.40;100.00
75192;BME280;63771;52.580;9.734;2023-11-19T07:17:42;100139.31;;;10.42;100.00
75192;BME280;63771;52.580;9.734;2023-11-19T07:20:10;100146.19;;;10.43;100.00
75192;BME280;63771;52.580;9.734;2023-11-19T07:22:38;100150.63;;;10.46;100.00
75192;BME280;63771;52.580;9.734;2023-11-19T07:25:04;100148.19;;;10.48;100.00
75192;BME280;63771;52.580;9.734;2023-11-19T07:27:29;100148.41;;;10.51;100.00
75192;BME280;63771;52.580;9.734;2023-11-19T07:29:54;100150.53;;;10.56;100.00
75192;BME280;63771;52.580;9.734;2023-11-19T07:32:20;100152.41;;;10.59;100.00
75192;BME280;63771;52.580;9.734;2023-11-19T07:34:45;100152.63;;;10.62;100.00
75192;BME280;63771;52.580;9.734;2023-11-19T07:37:10;100156.84;;;10.61;100.00
75192;BME280;63771;52.580;9.734;2023-11-19T07:39:36;100147.63;;;10.63;100.00
75192;BME280;63771;52.580;9.734;2023-11-19T07:42:03;100159.75;;;10.66;100.00
75192;BME280;63771;52.580;9.734;2023-11-19T07:44:28;100161.28;;;10.64;100.00
75192;BME280;63771;52.580;9.734;2023-11-19T07:46:54;100164.84;;;10.66;100.00
75192;BME280;63771;52.580;9.734;2023-11-19T07:49:19;100172.81;;;10.70;100.00
75192;BME280;63771;52.580;9.734;2023-11-19T07:51:44;100172.16;;;10.73;100.00
75192;BME280;63771;52.580;9.734;2023-11-19T07:54:10;100185.69;;;10.72;100.00
75192;BME280;63771;52.580;9.734;2023-11-19T07:56:35;100183.69;;;10.68;100.00
75192;BME280;63771;52.580;9.734;2023-11-19T07:59:01;100180.16;;;10.66;100.00
75192;BME280;63771;52.580;9.734;2023-11-19T08:01:27;100175.03;;;10.66;100.00
75192;BME280;63771;52.580;9.734;2023-11-19T08:03:52;100173.28;;;10.65;100.00
75192;BME280;63771;52.580;9.734;2023-11-19T08:06:17;100180.25;;;10.67;100.00
75192;BME280;63771;52.580;9.734;2023-11-19T08:08:43;100174.25;;;10.67;100.00
75192;BME280;63771;52.580;9.734;2023-11-19T08:11:08;100170.59;;;10.63;100.00
75192;BME280;63771;52.580;9.734;2023-11-19T08:13:33;100177.69;;;10.67;100.00
75192;BME280;63771;52.580;9.734;2023-11-19T08:15:59;100173.47;;;10.68;100.00
75192;BME280;63771;52.580;9.734;2023-11-19T08:18:24;100173.28;;;10.65;100.00
75192;BME280;63771;52.580;9.734;2023-11-19T08:20:49;100173.47;;;10.68;100.00
75192;BME280;63771;52.580;9.734;2023-11-19T08:23:19;100170.38;;;10.72;100.00
75192;BME280;63771;52.580;9.734;2023-11-19T08:25:44;100182.34;;;10.73;100.00
75192;BME280;63771;52.580;9.734;2023-11-19T08:28:10;100178.38;;;10.77;100.00
75192;BME280;63771;52.580;9.734;2023-11-19T08:30:35;100177.03;;;10.82;100.00
75192;BME280;63771;52.580;9.734;2023-11-19T08:33:00;100175.56;;;10.85;100.00
75192;BME280;63771;52.580;9.734;2023-11-19T08:35:31;100176.59;;;10.87;100.00
75192;BME280;63771;52.580;9.734;2023-11-19T08:37:56;100164.91;;;10.91;100.00
75192;BME280;63771;52.580;9.734;2023-11-19T08:40:22;100186.44;;;10.94;100.00
75192;BME280;63771;52.580;9.734;2023-11-19T08:42:47;100179.66;;;10.95;100.00
75192;BME280;63771;52.580;9.734;2023-11-19T08:45:13;100182.34;;;10.96;100.00
75192;BME280;63771;52.580;9.734;2023-11-19T08:47:38;100176.34;;;10.96;100.00
75192;BME280;63771;52.580;9.734;2023-11-19T08:50:05;100187.47;;;10.96;100.00
75192;BME280;63771;52.580;9.734;2023-11-19T08:52:31;100186.44;;;10.94;100.00
75192;BME280;63771;52.580;9.734;2023-11-19T08:54:56;100190.91;;;10.97;100.00
75192;BME280;63771;52.580;9.734;2023-11-19T08:57:22;100191.00;;;10.98;100.00
75192;BME280;63771;52.580;9.734;2023-11-19T08:59:47;100193.09;;;11.04;100.00
75192;BME280;63771;52.580;9.734;2023-11-19T09:02:13;100197.66;;;11.08;100.00
75192;BME280;63771;52.580;9.734;2023-11-19T09:04:38;100200.19;;;11.08;100.00
75192;BME280;63771;52.580;9.734;2023-11-19T09:07:03;100210.75;;;11.13;100.00
75192;BME280;63771;52.580;9.734;2023-11-19T09:09:29;100197.84;;;11.11;100.00
75192;BME280;63771;52.580;9.734;2023-11-19T09:11:55;100225.47;;;11.17;100.00
75192;BME280;63771;52.580;9.734;2023-11-19T09:14:20;100215.16;;;11.15;100.00
75192;BME280;63771;52.580;9.734;2023-11-19T09:16:50;100228.16;;;11.18;100.00
75192;BME280;63771;52.580;9.734;2023-11-19T09:19:16;100219.38;;;11.15;100.00
75192;BME280;63771;52.580;9.734;2023-11-19T09:21:42;100222.16;;;11.18;100.00
75192;BME280;63771;52.580;9.734;2023-11-19T09:24:08;100237.22;;;11.27;100.00
75192;BME280;63771;52.580;9.734;2023-11-19T09:26:33;100235.47;;;11.26;100.00
75192;BME280;63771;52.580;9.734;2023-11-19T09:28:58;100233.25;;;11.18;100.00
75192;BME280;63771;52.580;9.734;2023-11-19T09:31:24;100222.38;;;11.21;100.00
75192;BME280;63771;52.580;9.734;2023-11-19T09:33:49;100230.16;;;11.22;100.00
75192;BME280;63771;52.580;9.734;2023-11-19T09:36:14;100230.44;;;11.27;100.00
75192;BME280;63771;52.580;9.734;2023-11-19T09:38:42;100234.56;;;11.25;100.00
75192;BME280;63771;52.580;9.734;2023-11-19T09:41:07;100240.66;;;11.27;100.00
75192;BME280;63771;52.580;9.734;2023-11-19T09:43:34;100238.81;;;11.24;100.00
75192;BME280;63771;52.580;9.734;2023-11-19T09:46:04;100235.56;;;11.27;100.00
75192;BME280;63771;52.580;9.734;2023-11-19T09:48:33;100238.13;;;11.27;100.00
75192;BME280;63771;52.580;9.734;2023-11-19T09:50:58;100241.69;;;11.29;100.00
75192;BME280;63771;52.580;9.734;2023-11-19T09:53:24;100242.25;;;11.25;100.00
75192;BME280;63771;52.580;9.734;2023-11-19T09:55:50;100244.44;;;11.32;100.00
75192;BME280;63771;52.580;9.734;2023-11-19T09:58:16;100241.13;;;11.33;100.00
75192;BME280;63771;52.580;9.734;2023-11-19T10:00:42;100241.34;;;11.36;100.00
75192;BME280;63771;52.580;9.734;2023-11-19T10:03:09;100230.47;;;11.39;100.00
75192;BME280;63771;52.580;9.734;2023-11-19T10:05:36;100234.78;;;11.40;100.00
75192;BME280;63771;52.580;9.734;2023-11-19T10:08:03;100220.56;;;11.43;100.00
75192;BME280;63771;52.580;9.734;2023-11-19T10:10:28;100227.78;;;11.49;100.00
75192;BME280;63771;52.580;9.734;2023-11-19T10:12:54;100227.09;;;11.52;99.58
75192;BME280;63771;52.580;9.734;2023-11-19T10:15:22;100225.41;;;11.52;99.91
75192;BME280;63771;52.580;9.734;2023-11-19T10:17:48;100230.19;;;11.59;97.04
75192;BME280;63771;52.580;9.734;2023-11-19T10:20:13;100230.63;;;11.65;97.25
75192;BME280;63771;52.580;9.734;2023-11-19T10:22:39;100222.38;;;11.69;97.92
75192;BME280;63771;52.580;9.734;2023-11-19T10:25:27;100230.47;;;11.75;98.06
75192;BME280;63771;52.580;9.734;2023-11-19T10:27:54;100235.13;;;11.81;97.29
75192;BME280;63771;52.580;9.734;2023-11-19T10:30:24;100220.00;;;11.84;96.94
75192;BME280;63771;52.580;9.734;2023-11-19T10:33:11;100226.13;;;11.86;96.35
75192;BME280;63771;52.580;9.734;2023-11-19T10:35:55;100225.66;;;11.92;96.25
75192;BME280;63771;52.580;9.734;2023-11-19T10:38:22;100213.19;;;11.96;96.44
75192;BME280;63771;52.580;9.734;2023-11-19T10:40:48;100219.38;;;12.00;94.59
75192;BME280;63771;52.580;9.734;2023-11-19T10:43:14;100216.94;;;12.01;94.74
75192;BME280;63771;52.580;9.734;2023-11-19T10:45:40;100220.47;;;12.04;93.54
75192;BME280;63771;52.580;9.734;2023-11-19T10:48:06;100224.00;;;12.06;92.94
75192;BME280;63771;52.580;9.734;2023-11-19T10:50:35;100214.56;;;12.05;93.88
75192;BME280;63771;52.580;9.734;2023-11-19T10:53:02;100212.72;;;12.02;93.47
75192;BME280;63771;52.580;9.734;2023-11-19T10:55:33;100215.38;;;12.04;93.94
75192;BME280;63771;52.580;9.734;2023-11-19T11:00:35;100229.34;;;12.09;94.01
75192;BME280;63771;52.580;9.734;2023-11-19T11:03:08;100210.78;;;12.11;93.58
75192;BME280;63771;52.580;9.734;2023-11-19T11:05:36;100218.72;;;12.16;93.48
75192;BME280;63771;52.580;9.734;2023-11-19T11:08:04;100213.44;;;12.26;92.78
75192;BME280;63771;52.580;9.734;2023-11-19T11:10:32;100198.22;;;12.27;92.39
75192;BME280;63771;52.580;9.734;2023-11-19T11:13:02;100214.47;;;12.28;92.54
75192;BME280;63771;52.580;9.734;2023-11-19T11:15:30;100207.56;;;12.27;90.42
75192;BME280;63771;52.580;9.734;2023-11-19T11:17:59;100210.72;;;12.23;91.35
75192;BME280;63771;52.580;9.734;2023-11-19T11:20:32;100212.38;;;12.22;91.83
75192;BME280;63771;52.580;9.734;2023-11-19T11:23:36;100211.50;;;12.22;92.18
75192;BME280;63771;52.580;9.734;2023-11-19T11:31:13;100221.13;;;12.26;90.72
75192;BME280;63771;52.580;9.734;2023-11-19T11:33:53;100213.44;;;12.26;91.72
75192;BME280;63771;52.580;9.734;2023-11-19T11:36:25;100219.00;;;12.32;92.11
75192;BME280;63771;52.580;9.734;2023-11-19T11:38:51;100213.09;;;12.33;91.81
75192;BME280;63771;52.580;9.734;2023-11-19T11:41:20;100214.06;;;12.35;91.44
75192;BME280;63771;52.580;9.734;2023-11-19T11:43:51;100202.47;;;12.27;90.66
75192;BME280;63771;52.580;9.734;2023-11-19T11:48:58;100223.69;;;12.26;90.14
75192;BME280;63771;52.580;9.734;2023-11-19T11:57:03;100208.97;;;12.35;90.46
75192;BME280;63771;52.580;9.734;2023-11-19T11:59:48;100216.53;;;12.34;90.45
75192;BME280;63771;52.580;9.734;2023-11-19T12:02:19;100217.19;;;12.31;91.57
75192;BME280;63771;52.580;9.734;2023-11-19T12:04:47;100214.34;;;12.26;90.49
75192;BME280;63771;52.580;9.734;2023-11-19T12:07:18;100214.34;;;12.26;90.80
75192;BME280;63771;52.580;9.734;2023-11-19T12:09:52;100218.56;;;12.26;91.90
75192;BME280;63771;52.580;9.734;2023-11-19T12:12:23;100220.25;;;12.25;92.13
75192;BME280;63771;52.580;9.734;2023-11-19T12:15:08;100219.25;;;12.23;91.34
75192;BME280;63771;52.580;9.734;2023-11-19T12:17:40;100209.22;;;12.26;91.95
75192;BME280;63771;52.580;9.734;2023-11-19T12:20:06;100219.25;;;12.23;91.89
75192;BME280;63771;52.580;9.734;2023-11-19T12:22:38;100226.84;;;12.22;91.80
75192;BME280;63771;52.580;9.734;2023-11-19T12:25:05;100219.06;;;12.20;91.63
75192;BME280;63771;52.580;9.734;2023-11-19T12:27:32;100214.63;;;12.18;91.47
75192;BME280;63771;52.580;9.734;2023-11-19T12:29:59;100224.47;;;12.12;91.27
75192;BME280;63771;52.580;9.734;2023-11-19T12:32:24;100221.78;;;12.10;92.68
75192;BME280;63771;52.580;9.734;2023-11-19T12:34:50;100213.69;;;12.04;92.21
75192;BME280;63771;52.580;9.734;2023-11-19T12:37:15;100223.81;;;12.02;91.90
75192;BME280;63771;52.580;9.734;2023-11-19T12:39:40;100223.59;;;11.99;91.74
75192;BME280;63771;52.580;9.734;2023-11-19T12:42:06;100215.84;;;11.98;92.53
75192;BME280;63771;52.580;9.734;2023-11-19T12:44:31;100208.06;;;11.96;91.50
75192;BME280;63771;52.580;9.734;2023-11-19T12:47:17;100226.06;;;11.98;92.43
75192;BME280;63771;52.580;9.734;2023-11-19T12:49:42;100220.25;;;12.00;92.81
75192;BME280;63771;52.580;9.734;2023-11-19T12:52:13;100214.38;;;12.01;92.70
75192;BME280;63771;52.580;9.734;2023-11-19T12:54:39;100222.56;;;12.09;93.07
75192;BME280;63771;52.580;9.734;2023-11-19T12:57:05;100210.47;;;12.07;92.54
75192;BME280;63771;52.580;9.734;2023-11-19T12:59:31;100210.47;;;12.07;91.86
75192;BME280;63771;52.580;9.734;2023-11-19T13:01:59;100218.00;;;12.05;92.77